sensor_id;sensor_type;location;lat;lon;timestamp;P1;durP1;ratioP1;P2;durP2;ratioP2
37701;SDS011;23548;51.196;6.838;2023-09-08T00:00:41;13.52;;;9.70;;
37701;SDS011;23548;51.196;6.838;2023-09-08T00:03:06;13.98;;;9.93;;
37701;SDS011;23548;51.196;6.838;2023-09-08T00:05:32;13.20;;;9.00;;
37701;SDS011;23548;51.196;6.838;2023-09-08T00:07:58;10.57;;;8.82;;
37701;SDS011;23548;51.196;6.838;2023-09-08T00:10:23;9.85;;;8.85;;
37701;SDS011;23548;51.196;6.838;2023-09-08T00:12:49;15.38;;;9.10;;
37701;SDS011;23548;51.196;6.838;2023-09-08T00:15:14;10.57;;;9.48;;
37701;SDS011;23548;51.196;6.838;2023-09-08T00:17:40;11.60;;;9.07;;
37701;SDS011;23548;51.196;6.838;2023-09-08T00:20:06;17.92;;;9.25;;
37701;SDS011;23548;51.196;6.838;2023-09-08T00:22:37;11.48;;;9.35;;
37701;SDS011;23548;51.196;6.838;2023-09-08T00:25:03;14.25;;;9.55;;
37701;SDS011;23548;51.196;6.838;2023-09-08T00:27:29;13.02;;;9.77;;
37701;SDS011;23548;51.196;6.838;2023-09-08T00:29:56;10.10;;;8.88;;
37701;SDS011;23548;51.196;6.838;2023-09-08T00:32:22;10.82;;;8.93;;
37701;SDS011;23548;51.196;6.838;2023-09-08T00:34:47;10.80;;;9.15;;
37701;SDS011;23548;51.196;6.838;2023-09-08T00:37:13;10.82;;;9.07;;
37701;SDS011;23548;51.196;6.838;2023-09-08T00:39:39;15.32;;;9.38;;
37701;SDS011;23548;51.196;6.838;2023-09-08T00:42:05;15.45;;;9.48;;
37701;SDS011;23548;51.196;6.838;2023-09-08T00:44:32;12.27;;;9.20;;
37701;SDS011;23548;51.196;6.838;2023-09-08T00:46:57;13.27;;;10.00;;
37701;SDS011;23548;51.196;6.838;2023-09-08T00:49:23;16.90;;;10.25;;
37701;SDS011;23548;51.196;6.838;2023-09-08T00:51:49;12.23;;;9.68;;
37701;SDS011;23548;51.196;6.838;2023-09-08T00:54:16;11.98;;;9.27;;
37701;SDS011;23548;51.196;6.838;2023-09-08T00:56:43;11.38;;;9.20;;
37701;SDS011;23548;51.196;6.838;2023-09-08T00:59:11;11.90;;;9.27;;
37701;SDS011;23548;51.196;6.838;2023-09-08T01:01:37;12.95;;;9.70;;
37701;SDS011;23548;51.196;6.838;2023-09-08T01:04:03;12.45;;;10.25;;
37701;SDS011;23548;51.196;6.838;2023-09-08T01:06:29;13.40;;;9.98;;
37701;SDS011;23548;51.196;6.838;2023-09-08T01:08:57;13.00;;;10.35;;
37701;SDS011;23548;51.196;6.838;2023-09-08T01:11:23;12.82;;;9.88;;
37701;SDS011;23548;51.196;6.838;2023-09-08T01:13:51;19.60;;;10.52;;
37701;SDS011;23548;51.196;6.838;2023-09-08T01:16:16;16.83;;;10.25;;
37701;SDS011;23548;51.196;6.838;2023-09-08T01:18:43;14.40;;;9.85;;
37701;SDS011;23548;51.196;6.838;2023-09-08T01:26:30;15.43;;;10.18;;
37701;SDS011;23548;51.196;6.838;2023-09-08T01:29:00;13.13;;;9.70;;
37701;SDS011;23548;51.196;6.838;2023-09-08T01:31:27;13.18;;;9.55;;
37701;SDS011;23548;51.196;6.838;2023-09-08T01:33:53;16.52;;;10.48;;
37701;SDS011;23548;51.196;6.838;2023-09-08T01:36:20;13.98;;;9.85;;
37701;SDS011;23548;51.196;6.838;2023-09-08T01:38:46;13.77;;;10.45;;
37701;SDS011;23548;51.196;6.838;2023-09-08T01:41:11;20.50;;;9.95;;
37701;SDS011;23548;51.196;6.838;2023-09-08T01:43:37;13.88;;;10.18;;
37701;SDS011;23548;51.196;6.838;2023-09-08T01:46:03;12.23;;;10.18;;
37701;SDS011;23548;51.196;6.838;2023-09-08T01:48:28;12.60;;;9.50;;
37701;SDS011;23548;51.196;6.838;2023-09-08T01:50:54;12.75;;;10.30;;
37701;SDS011;23548;51.196;6.838;2023-09-08T01:53:20;13.30;;;9.43;;
37701;SDS011;23548;51.196;6.838;2023-09-08T01:55:45;16.20;;;10.25;;
37701;SDS011;23548;51.196;6.838;2023-09-08T01:58:11;17.63;;;10.75;;
37701;SDS011;23548;51.196;6.838;2023-09-08T02:00:37;14.38;;;11.05;;
37701;SDS011;23548;51.196;6.838;2023-09-08T02:03:02;10.85;;;9.70;;
37701;SDS011;23548;51.196;6.838;2023-09-08T02:05:28;11.02;;;9.35;;
37701;SDS011;23548;51.196;6.838;2023-09-08T02:07:54;11.15;;;9.80;;
37701;SDS011;23548;51.196;6.838;2023-09-08T02:10:21;14.10;;;10.00;;
37701;SDS011;23548;51.196;6.838;2023-09-08T02:12:47;12.63;;;10.15;;
37701;SDS011;23548;51.196;6.838;2023-09-08T02:15:13;14.27;;;10.18;;
37701;SDS011;23548;51.196;6.838;2023-09-08T02:17:39;14.48;;;10.45;;
37701;SDS011;23548;51.196;6.838;2023-09-08T02:20:04;14.88;;;10.93;;
37701;SDS011;23548;51.196;6.838;2023-09-08T02:22:30;16.02;;;11.23;;
37701;SDS011;23548;51.196;6.838;2023-09-08T02:24:56;13.65;;;10.52;;
37701;SDS011;23548;51.196;6.838;2023-09-08T02:27:23;14.18;;;11.15;;
37701;SDS011;23548;51.196;6.838;2023-09-08T02:29:48;14.07;;;10.77;;
37701;SDS011;23548;51.196;6.838;2023-09-08T02:32:14;12.38;;;10.90;;
37701;SDS011;23548;51.196;6.838;2023-09-08T02:34:40;16.30;;;11.15;;
37701;SDS011;23548;51.196;6.838;2023-09-08T02:37:07;12.27;;;10.63;;
37701;SDS011;23548;51.196;6.838;2023-09-08T02:39:33;13.02;;;10.73;;
37701;SDS011;23548;51.196;6.838;2023-09-08T02:41:59;16.88;;;11.10;;
37701;SDS011;23548;51.196;6.838;2023-09-08T02:44:25;17.27;;;11.57;;
37701;SDS011;23548;51.196;6.838;2023-09-08T02:46:52;15.55;;;11.60;;
37701;SDS011;23548;51.196;6.838;2023-09-08T02:49:17;16.50;;;11.93;;
37701;SDS011;23548;51.196;6.838;2023-09-08T02:51:43;16.50;;;11.25;;
37701;SDS011;23548;51.196;6.838;2023-09-08T02:54:09;19.02;;;11.18;;
37701;SDS011;23548;51.196;6.838;2023-09-08T02:56:34;15.23;;;11.82;;
37701;SDS011;23548;51.196;6.838;2023-09-08T02:59:00;19.00;;;11.63;;
37701;SDS011;23548;51.196;6.838;2023-09-08T03:01:26;13.20;;;11.25;;
37701;SDS011;23548;51.196;6.838;2023-09-08T03:03:51;13.57;;;11.82;;
37701;SDS011;23548;51.196;6.838;2023-09-08T03:06:18;18.33;;;11.63;;
37701;SDS011;23548;51.196;6.838;2023-09-08T03:08:45;15.40;;;11.82;;
37701;SDS011;23548;51.196;6.838;2023-09-08T03:11:10;15.88;;;12.40;;
37701;SDS011;23548;51.196;6.838;2023-09-08T03:13:37;14.05;;;11.07;;
37701;SDS011;23548;51.196;6.838;2023-09-08T03:16:03;12.73;;;11.10;;
37701;SDS011;23548;51.196;6.838;2023-09-08T03:18:30;12.00;;;10.80;;
37701;SDS011;23548;51.196;6.838;2023-09-08T03:20:57;17.42;;;11.35;;
37701;SDS011;23548;51.196;6.838;2023-09-08T03:23:24;15.43;;;10.18;;
37701;SDS011;23548;51.196;6.838;2023-09-08T03:25:50;12.18;;;10.13;;
37701;SDS011;23548;51.196;6.838;2023-09-08T03:28:16;14.45;;;10.57;;
37701;SDS011;23548;51.196;6.838;2023-09-08T03:30:41;16.58;;;10.75;;
37701;SDS011;23548;51.196;6.838;2023-09-08T03:33:07;15.73;;;12.07;;
37701;SDS011;23548;51.196;6.838;2023-09-08T03:35:33;15.30;;;11.60;;
37701;SDS011;23548;51.196;6.838;2023-09-08T03:37:58;13.73;;;12.13;;
37701;SDS011;23548;51.196;6.838;2023-09-08T03:40:24;14.18;;;12.05;;
37701;SDS011;23548;51.196;6.838;2023-09-08T03:42:50;13.77;;;12.35;;
37701;SDS011;23548;51.196;6.838;2023-09-08T03:45:15;15.30;;;12.60;;
37701;SDS011;23548;51.196;6.838;2023-09-08T03:47:41;14.95;;;10.82;;
37701;SDS011;23548;51.196;6.838;2023-09-08T03:50:07;15.52;;;11.63;;
37701;SDS011;23548;51.196;6.838;2023-09-08T03:52:33;14.95;;;11.80;;
37701;SDS011;23548;51.196;6.838;2023-09-08T03:54:59;14.18;;;10.95;;
37701;SDS011;23548;51.196;6.838;2023-09-08T03:57:25;13.43;;;10.85;;
37701;SDS011;23548;51.196;6.838;2023-09-08T03:59:50;15.00;;;10.80;;
37701;SDS011;23548;51.196;6.838;2023-09-08T04:02:16;14.27;;;11.25;;
37701;SDS011;23548;51.196;6.838;2023-09-08T04:04:42;15.82;;;10.77;;
37701;SDS011;23548;51.196;6.838;2023-09-08T04:07:07;14.93;;;11.90;;
37701;SDS011;23548;51.196;6.838;2023-09-08T04:09:33;16.52;;;12.23;;
37701;SDS011;23548;51.196;6.838;2023-09-08T04:11:59;16.27;;;10.85;;
37701;SDS011;23548;51.196;6.838;2023-09-08T04:14:24;14.93;;;11.68;;
37701;SDS011;23548;51.196;6.838;2023-09-08T04:16:52;13.35;;;11.73;;
37701;SDS011;23548;51.196;6.838;2023-09-08T04:19:18;18.20;;;12.32;;
37701;SDS011;23548;51.196;6.838;2023-09-08T04:21:44;17.45;;;13.15;;
37701;SDS011;23548;51.196;6.838;2023-09-08T04:24:09;15.45;;;12.15;;
37701;SDS011;23548;51.196;6.838;2023-09-08T04:26:35;17.83;;;13.07;;
37701;SDS011;23548;51.196;6.838;2023-09-08T04:29:02;18.30;;;12.70;;
37701;SDS011;23548;51.196;6.838;2023-09-08T04:31:27;16.50;;;12.13;;
37701;SDS011;23548;51.196;6.838;2023-09-08T04:33:53;15.55;;;11.70;;
37701;SDS011;23548;51.196;6.838;2023-09-08T04:36:19;15.80;;;12.07;;
37701;SDS011;23548;51.196;6.838;2023-09-08T04:38:45;15.13;;;11.13;;
37701;SDS011;23548;51.196;6.838;2023-09-08T04:41:11;23.02;;;12.90;;
37701;SDS011;23548;51.196;6.838;2023-09-08T04:43:36;26.20;;;12.32;;
37701;SDS011;23548;51.196;6.838;2023-09-08T04:46:02;23.38;;;12.30;;
37701;SDS011;23548;51.196;6.838;2023-09-08T04:48:28;24.85;;;11.90;;
37701;SDS011;23548;51.196;6.838;2023-09-08T04:50:54;18.95;;;12.10;;
37701;SDS011;23548;51.196;6.838;2023-09-08T04:53:21;25.35;;;12.75;;
37701;SDS011;23548;51.196;6.838;2023-09-08T04:55:47;19.63;;;12.07;;
37701;SDS011;23548;51.196;6.838;2023-09-08T04:58:12;21.55;;;11.68;;
37701;SDS011;23548;51.196;6.838;2023-09-08T05:00:38;19.02;;;11.88;;
37701;SDS011;23548;51.196;6.838;2023-09-08T05:03:05;21.02;;;10.93;;
37701;SDS011;23548;51.196;6.838;2023-09-08T05:05:31;18.85;;;12.05;;
37701;SDS011;23548;51.196;6.838;2023-09-08T05:07:57;24.88;;;14.25;;
37701;SDS011;23548;51.196;6.838;2023-09-08T05:10:23;18.42;;;12.80;;
37701;SDS011;23548;51.196;6.838;2023-09-08T05:12:50;19.52;;;11.55;;
37701;SDS011;23548;51.196;6.838;2023-09-08T05:15:16;21.60;;;12.93;;
37701;SDS011;23548;51.196;6.838;2023-09-08T05:17:42;30.92;;;13.15;;
37701;SDS011;23548;51.196;6.838;2023-09-08T05:20:08;24.10;;;12.63;;
37701;SDS011;23548;51.196;6.838;2023-09-08T05:22:34;22.77;;;12.23;;
37701;SDS011;23548;51.196;6.838;2023-09-08T05:25:01;28.70;;;11.73;;
37701;SDS011;23548;51.196;6.838;2023-09-08T05:27:27;27.85;;;12.23;;
37701;SDS011;23548;51.196;6.838;2023-09-08T05:29:53;20.38;;;12.48;;
37701;SDS011;23548;51.196;6.838;2023-09-08T05:32:19;17.48;;;12.05;;
37701;SDS011;23548;51.196;6.838;2023-09-08T05:34:45;22.42;;;11.80;;
37701;SDS011;23548;51.196;6.838;2023-09-08T05:37:10;19.95;;;11.55;;
37701;SDS011;23548;51.196;6.838;2023-09-08T05:39:36;22.30;;;11.45;;
37701;SDS011;23548;51.196;6.838;2023-09-08T05:42:02;28.35;;;19.65;;
37701;SDS011;23548;51.196;6.838;2023-09-08T05:44:28;20.40;;;12.25;;
37701;SDS011;23548;51.196;6.838;2023-09-08T05:46:53;30.10;;;14.10;;
37701;SDS011;23548;51.196;6.838;2023-09-08T05:49:19;19.90;;;13.52;;
37701;SDS011;23548;51.196;6.838;2023-09-08T05:51:45;29.50;;;13.23;;
37701;SDS011;23548;51.196;6.838;2023-09-08T05:54:10;17.13;;;12.25;;
37701;SDS011;23548;51.196;6.838;2023-09-08T05:56:36;22.73;;;12.57;;
37701;SDS011;23548;51.196;6.838;2023-09-08T05:59:03;19.15;;;12.23;;
37701;SDS011;23548;51.196;6.838;2023-09-08T06:01:30;23.08;;;12.40;;
37701;SDS011;23548;51.196;6.838;2023-09-08T06:03:56;21.90;;;12.93;;
37701;SDS011;23548;51.196;6.838;2023-09-08T06:06:22;25.75;;;12.45;;
37701;SDS011;23548;51.196;6.838;2023-09-08T06:08:48;26.50;;;14.60;;
37701;SDS011;23548;51.196;6.838;2023-09-08T06:11:14;19.15;;;11.82;;
37701;SDS011;23548;51.196;6.838;2023-09-08T06:13:39;22.00;;;12.32;;
37701;SDS011;23548;51.196;6.838;2023-09-08T06:16:05;22.00;;;12.40;;
37701;SDS011;23548;51.196;6.838;2023-09-08T06:18:31;16.05;;;12.38;;
37701;SDS011;23548;51.196;6.838;2023-09-08T06:20:57;17.10;;;12.18;;
37701;SDS011;23548;51.196;6.838;2023-09-08T06:23:23;16.13;;;12.00;;
37701;SDS011;23548;51.196;6.838;2023-09-08T06:25:49;18.20;;;12.25;;
37701;SDS011;23548;51.196;6.838;2023-09-08T06:28:14;17.13;;;11.75;;
37701;SDS011;23548;51.196;6.838;2023-09-08T06:30:40;15.25;;;11.38;;
37701;SDS011;23548;51.196;6.838;2023-09-08T06:33:09;16.77;;;10.75;;
37701;SDS011;23548;51.196;6.838;2023-09-08T06:35:35;14.93;;;10.80;;
37701;SDS011;23548;51.196;6.838;2023-09-08T06:38:01;15.48;;;9.98;;
37701;SDS011;23548;51.196;6.838;2023-09-08T06:40:29;17.95;;;11.10;;
37701;SDS011;23548;51.196;6.838;2023-09-08T06:42:55;13.82;;;10.48;;
37701;SDS011;23548;51.196;6.838;2023-09-08T06:45:22;14.50;;;10.20;;
37701;SDS011;23548;51.196;6.838;2023-09-08T06:47:47;16.35;;;9.77;;
37701;SDS011;23548;51.196;6.838;2023-09-08T06:50:15;12.45;;;9.88;;
37701;SDS011;23548;51.196;6.838;2023-09-08T06:52:41;13.13;;;10.00;;
37701;SDS011;23548;51.196;6.838;2023-09-08T06:55:06;12.68;;;8.73;;
37701;SDS011;23548;51.196;6.838;2023-09-08T06:57:32;15.32;;;9.10;;
37701;SDS011;23548;51.196;6.838;2023-09-08T06:59:58;10.63;;;7.78;;
37701;SDS011;23548;51.196;6.838;2023-09-08T07:02:24;10.45;;;8.00;;
37701;SDS011;23548;51.196;6.838;2023-09-08T07:04:49;12.02;;;8.57;;
37701;SDS011;23548;51.196;6.838;2023-09-08T07:07:16;10.70;;;7.97;;
37701;SDS011;23548;51.196;6.838;2023-09-08T07:09:43;11.30;;;8.13;;
37701;SDS011;23548;51.196;6.838;2023-09-08T07:12:08;10.30;;;8.15;;
37701;SDS011;23548;51.196;6.838;2023-09-08T07:14:34;10.38;;;7.80;;
37701;SDS011;23548;51.196;6.838;2023-09-08T07:17:00;12.88;;;7.95;;
37701;SDS011;23548;51.196;6.838;2023-09-08T07:19:26;10.70;;;7.75;;
37701;SDS011;23548;51.196;6.838;2023-09-08T07:21:52;14.48;;;8.05;;
37701;SDS011;23548;51.196;6.838;2023-09-08T07:24:18;12.23;;;7.72;;
37701;SDS011;23548;51.196;6.838;2023-09-08T07:26:43;14.88;;;7.47;;
37701;SDS011;23548;51.196;6.838;2023-09-08T07:29:09;13.38;;;7.65;;
37701;SDS011;23548;51.196;6.838;2023-09-08T07:31:35;12.40;;;7.07;;
37701;SDS011;23548;51.196;6.838;2023-09-08T07:34:01;10.50;;;6.80;;
37701;SDS011;23548;51.196;6.838;2023-09-08T07:36:27;11.52;;;7.28;;
37701;SDS011;23548;51.196;6.838;2023-09-08T07:38:52;9.75;;;7.53;;
37701;SDS011;23548;51.196;6.838;2023-09-08T07:41:18;12.48;;;6.97;;
37701;SDS011;23548;51.196;6.838;2023-09-08T07:43:44;10.00;;;7.13;;
37701;SDS011;23548;51.196;6.838;2023-09-08T07:46:10;9.02;;;7.18;;
37701;SDS011;23548;51.196;6.838;2023-09-08T07:48:36;14.88;;;7.07;;
37701;SDS011;23548;51.196;6.838;2023-09-08T07:51:02;8.10;;;6.47;;
37701;SDS011;23548;51.196;6.838;2023-09-08T07:53:28;18.48;;;7.22;;
37701;SDS011;23548;51.196;6.838;2023-09-08T07:55:54;13.43;;;6.68;;
37701;SDS011;23548;51.196;6.838;2023-09-08T07:58:21;10.77;;;6.90;;
37701;SDS011;23548;51.196;6.838;2023-09-08T08:00:47;11.52;;;6.20;;
37701;SDS011;23548;51.196;6.838;2023-09-08T08:03:13;13.43;;;6.50;;
37701;SDS011;23548;51.196;6.838;2023-09-08T08:05:38;10.02;;;6.72;;
37701;SDS011;23548;51.196;6.838;2023-09-08T08:08:04;10.68;;;6.72;;
37701;SDS011;23548;51.196;6.838;2023-09-08T08:10:30;8.40;;;6.45;;
37701;SDS011;23548;51.196;6.838;2023-09-08T08:12:56;8.05;;;5.82;;
37701;SDS011;23548;51.196;6.838;2023-09-08T08:15:22;16.42;;;6.80;;
37701;SDS011;23548;51.196;6.838;2023-09-08T08:17:59;14.15;;;6.93;;
37701;SDS011;23548;51.196;6.838;2023-09-08T08:20:24;10.32;;;6.70;;
37701;SDS011;23548;51.196;6.838;2023-09-08T08:22:50;9.45;;;6.10;;
37701;SDS011;23548;51.196;6.838;2023-09-08T08:25:16;13.32;;;6.85;;
37701;SDS011;23548;51.196;6.838;2023-09-08T08:27:42;7.68;;;6.65;;
37701;SDS011;23548;51.196;6.838;2023-09-08T08:30:08;11.55;;;6.20;;
37701;SDS011;23548;51.196;6.838;2023-09-08T08:32:36;9.23;;;6.18;;
37701;SDS011;23548;51.196;6.838;2023-09-08T08:35:02;10.57;;;6.68;;
37701;SDS011;23548;51.196;6.838;2023-09-08T08:37:29;10.82;;;6.07;;
37701;SDS011;23548;51.196;6.838;2023-09-08T08:39:55;9.25;;;6.40;;
37701;SDS011;23548;51.196;6.838;2023-09-08T08:42:21;10.27;;;6.53;;
37701;SDS011;23548;51.196;6.838;2023-09-08T08:44:47;7.72;;;6.63;;
37701;SDS011;23548;51.196;6.838;2023-09-08T08:47:14;10.95;;;6.53;;
37701;SDS011;23548;51.196;6.838;2023-09-08T08:49:43;9.82;;;6.55;;
37701;SDS011;23548;51.196;6.838;2023-09-08T08:52:11;6.65;;;6.00;;
37701;SDS011;23548;51.196;6.838;2023-09-08T08:54:39;7.88;;;6.40;;
37701;SDS011;23548;51.196;6.838;2023-09-08T08:57:06;11.90;;;6.50;;
37701;SDS011;23548;51.196;6.838;2023-09-08T08:59:32;11.57;;;6.18;;
37701;SDS011;23548;51.196;6.838;2023-09-08T09:01:58;8.73;;;6.20;;
37701;SDS011;23548;51.196;6.838;2023-09-08T09:04:25;11.02;;;6.38;;
37701;SDS011;23548;51.196;6.838;2023-09-08T09:06:52;7.80;;;6.28;;
37701;SDS011;23548;51.196;6.838;2023-09-08T09:09:19;10.50;;;6.22;;
37701;SDS011;23548;51.196;6.838;2023-09-08T09:11:45;10.07;;;6.45;;
37701;SDS011;23548;51.196;6.838;2023-09-08T09:14:11;8.57;;;6.47;;
37701;SDS011;23548;51.196;6.838;2023-09-08T09:16:40;10.50;;;6.53;;
37701;SDS011;23548;51.196;6.838;2023-09-08T09:19:08;10.00;;;6.65;;
37701;SDS011;23548;51.196;6.838;2023-09-08T09:21:41;14.23;;;6.63;;
37701;SDS011;23548;51.196;6.838;2023-09-08T09:24:07;7.93;;;6.28;;
37701;SDS011;23548;51.196;6.838;2023-09-08T09:26:33;10.43;;;6.00;;
37701;SDS011;23548;51.196;6.838;2023-09-08T09:29:00;7.30;;;6.13;;
37701;SDS011;23548;51.196;6.838;2023-09-08T09:31:26;15.57;;;8.80;;
37701;SDS011;23548;51.196;6.838;2023-09-08T09:34:01;10.90;;;6.70;;
37701;SDS011;23548;51.196;6.838;2023-09-08T09:36:29;9.20;;;6.20;;
37701;SDS011;23548;51.196;6.838;2023-09-08T09:38:58;6.57;;;5.85;;
37701;SDS011;23548;51.196;6.838;2023-09-08T09:41:27;7.13;;;5.85;;
37701;SDS011;23548;51.196;6.838;2023-09-08T09:43:54;10.80;;;6.30;;
37701;SDS011;23548;51.196;6.838;2023-09-08T09:46:20;9.57;;;6.32;;
37701;SDS011;23548;51.196;6.838;2023-09-08T09:48:50;12.65;;;5.60;;
37701;SDS011;23548;51.196;6.838;2023-09-08T09:51:18;11.23;;;6.55;;
37701;SDS011;23548;51.196;6.838;2023-09-08T09:53:44;9.60;;;6.45;;
37701;SDS011;23548;51.196;6.838;2023-09-08T09:56:11;6.80;;;6.10;;
37701;SDS011;23548;51.196;6.838;2023-09-08T09:58:38;7.85;;;5.85;;
37701;SDS011;23548;51.196;6.838;2023-09-08T10:01:05;8.77;;;6.10;;
37701;SDS011;23548;51.196;6.838;2023-09-08T10:03:31;8.68;;;6.10;;
37701;SDS011;23548;51.196;6.838;2023-09-08T10:05:58;8.48;;;6.70;;
37701;SDS011;23548;51.196;6.838;2023-09-08T10:08:25;8.93;;;6.28;;
37701;SDS011;23548;51.196;6.838;2023-09-08T10:10:50;7.15;;;6.07;;
37701;SDS011;23548;51.196;6.838;2023-09-08T10:13:18;11.93;;;6.00;;
37701;SDS011;23548;51.196;6.838;2023-09-08T10:15:57;6.28;;;5.68;;
37701;SDS011;23548;51.196;6.838;2023-09-08T10:18:24;6.57;;;5.95;;
37701;SDS011;23548;51.196;6.838;2023-09-08T10:20:51;9.57;;;6.15;;
37701;SDS011;23548;51.196;6.838;2023-09-08T10:23:29;8.73;;;6.70;;
37701;SDS011;23548;51.196;6.838;2023-09-08T10:26:20;10.23;;;6.20;;
37701;SDS011;23548;51.196;6.838;2023-09-08T10:28:49;12.45;;;6.80;;
37701;SDS011;23548;51.196;6.838;2023-09-08T10:31:20;8.05;;;5.75;;
37701;SDS011;23548;51.196;6.838;2023-09-08T10:33:47;10.32;;;6.28;;
37701;SDS011;23548;51.196;6.838;2023-09-08T10:36:13;8.48;;;6.45;;
37701;SDS011;23548;51.196;6.838;2023-09-08T10:38:39;8.13;;;6.10;;
37701;SDS011;23548;51.196;6.838;2023-09-08T10:43:44;12.80;;;6.55;;
37701;SDS011;23548;51.196;6.838;2023-09-08T10:46:21;7.40;;;6.40;;
37701;SDS011;23548;51.196;6.838;2023-09-08T10:48:47;7.80;;;6.30;;
37701;SDS011;23548;51.196;6.838;2023-09-08T10:51:13;7.78;;;6.10;;
37701;SDS011;23548;51.196;6.838;2023-09-08T10:53:40;7.25;;;6.13;;
37701;SDS011;23548;51.196;6.838;2023-09-08T10:56:06;9.85;;;6.28;;
37701;SDS011;23548;51.196;6.838;2023-09-08T10:58:33;8.45;;;6.53;;
37701;SDS011;23548;51.196;6.838;2023-09-08T11:01:02;10.25;;;6.35;;
37701;SDS011;23548;51.196;6.838;2023-09-08T11:06:07;11.52;;;6.90;;
37701;SDS011;23548;51.196;6.838;2023-09-08T11:08:37;7.90;;;6.30;;
37701;SDS011;23548;51.196;6.838;2023-09-08T11:11:07;9.18;;;6.10;;
37701;SDS011;23548;51.196;6.838;2023-09-08T11:13:35;8.93;;;6.43;;
37701;SDS011;23548;51.196;6.838;2023-09-08T11:16:01;9.23;;;6.55;;
37701;SDS011;23548;51.196;6.838;2023-09-08T11:18:30;9.82;;;6.85;;
37701;SDS011;23548;51.196;6.838;2023-09-08T11:20:58;8.77;;;6.32;;
37701;SDS011;23548;51.196;6.838;2023-09-08T11:23:24;12.93;;;6.95;;
37701;SDS011;23548;51.196;6.838;2023-09-08T11:25:51;9.45;;;6.47;;
37701;SDS011;23548;51.196;6.838;2023-09-08T11:28:18;10.90;;;6.72;;
37701;SDS011;23548;51.196;6.838;2023-09-08T11:30:48;8.60;;;6.15;;
37701;SDS011;23548;51.196;6.838;2023-09-08T11:33:18;7.97;;;6.40;;
37701;SDS011;23548;51.196;6.838;2023-09-08T11:35:47;8.20;;;6.82;;
37701;SDS011;23548;51.196;6.838;2023-09-08T11:38:13;9.00;;;6.60;;
37701;SDS011;23548;51.196;6.838;2023-09-08T11:40:39;7.30;;;6.55;;
37701;SDS011;23548;51.196;6.838;2023-09-08T11:43:06;8.68;;;6.78;;
37701;SDS011;23548;51.196;6.838;2023-09-08T11:45:35;7.63;;;6.60;;
37701;SDS011;23548;51.196;6.838;2023-09-08T11:48:01;9.73;;;6.90;;
37701;SDS011;23548;51.196;6.838;2023-09-08T11:50:29;9.10;;;6.40;;
37701;SDS011;23548;51.196;6.838;2023-09-08T11:52:56;9.82;;;7.00;;
37701;SDS011;23548;51.196;6.838;2023-09-08T11:55:24;12.20;;;6.78;;
37701;SDS011;23548;51.196;6.838;2023-09-08T11:57:52;8.63;;;6.93;;
37701;SDS011;23548;51.196;6.838;2023-09-08T12:00:26;12.95;;;6.70;;
37701;SDS011;23548;51.196;6.838;2023-09-08T12:02:53;12.20;;;6.53;;
37701;SDS011;23548;51.196;6.838;2023-09-08T12:05:22;7.88;;;6.40;;
37701;SDS011;23548;51.196;6.838;2023-09-08T12:07:50;7.35;;;6.55;;
37701;SDS011;23548;51.196;6.838;2023-09-08T12:10:17;9.38;;;7.00;;
37701;SDS011;23548;51.196;6.838;2023-09-08T12:12:53;8.75;;;6.57;;
37701;SDS011;23548;51.196;6.838;2023-09-08T12:15:30;10.13;;;6.45;;
37701;SDS011;23548;51.196;6.838;2023-09-08T12:18:04;7.15;;;6.43;;
37701;SDS011;23548;51.196;6.838;2023-09-08T12:20:32;9.20;;;6.65;;
37701;SDS011;23548;51.196;6.838;2023-09-08T12:23:01;7.15;;;6.40;;
37701;SDS011;23548;51.196;6.838;2023-09-08T12:25:49;11.80;;;6.93;;
37701;SDS011;23548;51.196;6.838;2023-09-08T12:28:20;8.30;;;7.38;;
37701;SDS011;23548;51.196;6.838;2023-09-08T12:30:46;14.43;;;7.03;;
37701;SDS011;23548;51.196;6.838;2023-09-08T12:33:13;11.10;;;6.80;;
37701;SDS011;23548;51.196;6.838;2023-09-08T12:35:45;8.75;;;6.50;;
37701;SDS011;23548;51.196;6.838;2023-09-08T12:38:13;7.80;;;6.57;;
37701;SDS011;23548;51.196;6.838;2023-09-08T12:40:39;13.77;;;6.43;;
37701;SDS011;23548;51.196;6.838;2023-09-08T12:43:05;8.35;;;6.88;;
37701;SDS011;23548;51.196;6.838;2023-09-08T12:45:31;9.57;;;6.40;;
37701;SDS011;23548;51.196;6.838;2023-09-08T12:47:58;9.73;;;6.85;;
37701;SDS011;23548;51.196;6.838;2023-09-08T12:50:26;12.30;;;7.30;;
37701;SDS011;23548;51.196;6.838;2023-09-08T12:52:52;8.80;;;6.55;;
37701;SDS011;23548;51.196;6.838;2023-09-08T12:55:18;10.55;;;6.95;;
37701;SDS011;23548;51.196;6.838;2023-09-08T12:57:44;10.45;;;6.53;;
37701;SDS011;23548;51.196;6.838;2023-09-08T13:00:11;8.02;;;6.30;;
37701;SDS011;23548;51.196;6.838;2023-09-08T13:02:37;8.68;;;6.50;;
37701;SDS011;23548;51.196;6.838;2023-09-08T13:05:03;8.50;;;6.35;;
37701;SDS011;23548;51.196;6.838;2023-09-08T13:07:29;8.30;;;6.97;;
37701;SDS011;23548;51.196;6.838;2023-09-08T13:09:55;8.70;;;7.07;;
37701;SDS011;23548;51.196;6.838;2023-09-08T13:12:21;9.90;;;6.55;;
37701;SDS011;23548;51.196;6.838;2023-09-08T13:14:47;10.02;;;6.90;;
37701;SDS011;23548;51.196;6.838;2023-09-08T13:17:13;9.60;;;6.80;;
37701;SDS011;23548;51.196;6.838;2023-09-08T13:19:42;8.90;;;5.95;;
37701;SDS011;23548;51.196;6.838;2023-09-08T13:22:08;7.30;;;6.30;;
37701;SDS011;23548;51.196;6.838;2023-09-08T13:24:35;11.02;;;6.28;;
37701;SDS011;23548;51.196;6.838;2023-09-08T13:27:01;7.72;;;6.28;;
37701;SDS011;23548;51.196;6.838;2023-09-08T13:29:27;8.57;;;6.35;;
37701;SDS011;23548;51.196;6.838;2023-09-08T13:31:53;7.13;;;6.43;;
37701;SDS011;23548;51.196;6.838;2023-09-08T13:34:19;13.20;;;7.05;;
37701;SDS011;23548;51.196;6.838;2023-09-08T13:36:49;10.07;;;6.25;;
37701;SDS011;23548;51.196;6.838;2023-09-08T13:39:15;13.15;;;5.97;;
37701;SDS011;23548;51.196;6.838;2023-09-08T13:41:47;7.05;;;5.90;;
37701;SDS011;23548;51.196;6.838;2023-09-08T13:44:16;8.43;;;5.18;;
37701;SDS011;23548;51.196;6.838;2023-09-08T13:46:45;13.13;;;7.03;;
37701;SDS011;23548;51.196;6.838;2023-09-08T13:49:12;10.15;;;6.10;;
37701;SDS011;23548;51.196;6.838;2023-09-08T13:51:38;8.02;;;6.00;;
37701;SDS011;23548;51.196;6.838;2023-09-08T13:54:03;8.95;;;6.15;;
37701;SDS011;23548;51.196;6.838;2023-09-08T13:56:29;6.85;;;5.38;;
37701;SDS011;23548;51.196;6.838;2023-09-08T13:58:55;10.20;;;5.68;;
37701;SDS011;23548;51.196;6.838;2023-09-08T14:01:20;9.95;;;5.80;;
37701;SDS011;23548;51.196;6.838;2023-09-08T14:03:46;9.60;;;6.18;;
37701;SDS011;23548;51.196;6.838;2023-09-08T14:06:16;8.40;;;5.55;;
37701;SDS011;23548;51.196;6.838;2023-09-08T14:08:43;11.00;;;5.70;;
37701;SDS011;23548;51.196;6.838;2023-09-08T14:11:09;8.57;;;5.65;;
37701;SDS011;23548;51.196;6.838;2023-09-08T14:13:35;12.05;;;6.32;;
37701;SDS011;23548;51.196;6.838;2023-09-08T14:16:01;6.53;;;5.15;;
37701;SDS011;23548;51.196;6.838;2023-09-08T14:18:26;7.80;;;5.38;;
37701;SDS011;23548;51.196;6.838;2023-09-08T14:20:52;12.93;;;6.07;;
37701;SDS011;23548;51.196;6.838;2023-09-08T14:23:18;7.75;;;5.68;;
37701;SDS011;23548;51.196;6.838;2023-09-08T14:25:44;8.32;;;5.53;;
37701;SDS011;23548;51.196;6.838;2023-09-08T14:28:09;9.07;;;5.50;;
37701;SDS011;23548;51.196;6.838;2023-09-08T14:30:35;11.32;;;5.38;;
37701;SDS011;23548;51.196;6.838;2023-09-08T14:33:01;7.07;;;5.70;;
37701;SDS011;23548;51.196;6.838;2023-09-08T14:35:26;10.10;;;5.38;;
37701;SDS011;23548;51.196;6.838;2023-09-08T14:37:52;6.07;;;5.43;;
37701;SDS011;23548;51.196;6.838;2023-09-08T14:40:18;9.05;;;5.43;;